ADDS METAR Data INFO
IDs: Format: Raw Decoded Include TAF

Data at: 2226 UTC 24 Jun 2018

KPQN 242215Z AUTO 00000KT 10SM SCT027 27/20 A2987 RMK AO2 LTG DSNT NE THRU SE
KPQN 242155Z AUTO 00000KT 10SM SCT027 26/20 A2987 RMK AO2 LTG DSNT NE AND E
KPQN 242135Z AUTO 25004KT 10SM SCT025 SCT085 26/21 A2987 RMK AO2 LTG DSNT NE AND E
KPQN 242115Z AUTO 23007KT 10SM TS SCT025 26/21 A2988 RMK AO2 LTG DSNT N THRU SE
KPQN 242055Z AUTO 20006KT 10SM SCT025 25/21 A2989 RMK AO2 LTG DSNT NE
KPQN 242035Z AUTO 19007KT 10SM VCTS CLR 26/21 A2989 RMK AO2 LTG DSNT N NE AND SW
KPQN 242015Z AUTO 18006KT 10SM TS CLR 25/21 A2989 RMK AO2 LTG DSNT N AND W
KPQN 241955Z AUTO 18006KT 10SM VCTS CLR 24/20 A2990 RMK AO2 LTG DSNT SW THRU N
KPQN 241935Z AUTO 17009KT 10SM CLR 25/19 A2989 RMK AO2 LTG DSNT NW
KPQN 241915Z AUTO 18008KT 10SM -DZ CLR 25/20 A2989 RMK AO2
KPQN 241855Z AUTO 18008KT 10SM SCT023 25/20 A2989 RMK AO2 LTG DSNT W
KPQN 241835Z AUTO 15007KT 10SM SCT023 26/21 A2988 RMK AO2 LTG DSNT E
KPQN 241815Z AUTO 15008KT 10SM CLR 24/20 A2988 RMK AO2
KPQN 241755Z AUTO 14007KT 10SM -TSRA SCT017 SCT070 24/20 A2988 RMK AO2
KPQN 241735Z AUTO 14004KT 10SM SCT017 23/19 A2988 RMK AO2
KPQN 241715Z AUTO 15004KT 10SM TS SCT085 24/20 A2989 RMK AO2
KPQN 241655Z AUTO 16005KT 10SM SCT085 23/19 A2989 RMK AO2
KPQN 241635Z AUTO 17006KT 10SM -RA SCT095 22/19 A2989 RMK AO2
KPQN 241615Z AUTO 19007KT 10SM TS SCT095 23/19 A2989 RMK AO2
KPQN 241555Z AUTO 18004KT 10SM SCT017 22/18 A2987 RMK AO2
KPQN 241535Z AUTO 18005KT 10SM SCT017 22/18 A2987 RMK AO2
KPQN 241515Z AUTO 13006KT 10SM SCT015 22/18 A2985 RMK AO2
KPQN 241455Z AUTO 18006KT 10SM SCT015 SCT090 21/18 A2985 RMK AO2
KPQN 241435Z AUTO 16005KT 10SM SCT010 SCT017 SCT090 21/18 A2986 RMK AO2
KPQN 241415Z AUTO 17004KT 10SM SCT008 SCT014 20/18 A2986 RMK AO2
KPQN 241355Z AUTO 16006KT 10SM SCT014 20/18 A2986 RMK AO2
KPQN 241335Z AUTO 16005KT 10SM SCT009 BKN014 19/18 A2987 RMK AO2
KPQN 241315Z AUTO 16003KT 10SM SCT012 SCT080 19/18 A2987 RMK AO2
KPQN 241255Z AUTO 19004KT 7SM SCT010 19/18 A2986 RMK AO2
KPQN 241235Z AUTO 17004KT 7SM BKN008 19/18 A2984 RMK AO2
KPQN 241215Z AUTO 16003KT 7SM BKN008 19/18 A2984 RMK AO2
KPQN 241155Z AUTO 15003KT 5SM BR BKN008 18/18 A2982 RMK AO2
KPQN 241135Z AUTO 16004KT 5SM BR OVC008 18/18 A2981 RMK AO2
KPQN 241115Z AUTO 19004KT 5SM VCTSBR OVC006 18/18 A2979 RMK AO2
KPQN 241055Z AUTO 18004KT 5SM BR OVC006 18/18 A2978 RMK AO2 LTG DSNT NE
KPQN 241035Z AUTO 17004KT 7SM OVC006 18/17 A2977 RMK AO2 LTG DSNT E
KPQN 241015Z AUTO 16003KT 7SM OVC006 18/18 A2977 RMK AO2
KPQN 240955Z AUTO 16003KT 7SM OVC008 19/18 A2978 RMK AO2 LTG DSNT N
KPQN 240935Z AUTO 17006KT 7SM OVC008 18/18 A2978 RMK AO2
KPQN 240915Z AUTO 16006KT 7SM OVC010 18/17 A2978 RMK AO2
KPQN 240855Z AUTO 17006KT 7SM BKN012 18/17 A2979 RMK AO2 LTG DSNT SE
KPQN 240835Z AUTO 15005KT 7SM CLR 18/17 A2978 RMK AO2
KPQN 240815Z AUTO 17006KT 10SM CLR 18/17 A2978 RMK AO2
KPQN 240755Z AUTO 15004KT 10SM CLR 18/17 A2978 RMK AO2
KPQN 240735Z AUTO 17005KT 10SM CLR 18/17 A2978 RMK AO2 LTG DSNT N
KPQN 240715Z AUTO 19007KT 10SM SCT120 18/17 A2978 RMK AO2
KPQN 240655Z AUTO 19006KT 10SM SCT120 19/18 A2978 RMK AO2 LTG DSNT N AND E
KPQN 240635Z AUTO 20008KT 10SM SCT075 BKN110 19/18 A2979 RMK AO2 LTG DSNT NE AND SW
KPQN 240615Z AUTO 18008KT 10SM SCT110 19/18 A2979 RMK AO2 LTG DSNT N
KPQN 240555Z AUTO 18008KT 10SM CLR 19/18 A2978 RMK AO2 LTG DSNT NE
KPQN 240535Z AUTO 18009KT 10SM CLR 19/18 A2978 RMK AO2 LTG DSNT NE
KPQN 240515Z AUTO 19009KT 10SM SCT110 19/18 A2977 RMK AO2 LTG DSNT NE AND SW
KPQN 240455Z AUTO 19008KT 10SM -TSRA SCT026 SCT055 SCT110 19/18 A2978 RMK AO2 LTG DSNT N THRU SE
KPQN 240435Z AUTO 19007KT 10SM -RA SCT028 BKN039 BKN050 20/18 A2979 RMK AO2
KPQN 240415Z AUTO 19007KT 10SM -RA SCT039 BKN050 20/18 A2979 RMK AO2
KPQN 240355Z AUTO 16008KT 10SM SCT120 21/18 A2976 RMK AO2
KPQN 240335Z AUTO 16007KT 10SM SCT120 21/18 A2976 RMK AO2
KPQN 240315Z AUTO 16008KT 10SM CLR 21/18 A2976 RMK AO2
KPQN 240255Z AUTO 18008KT 10SM SCT080 21/18 A2978 RMK AO2 LTG DSNT W
KPQN 240235Z AUTO 18005KT 10SM BKN080 21/18 A2977 RMK AO2
KPQN 240215Z AUTO 18005KT 10SM SCT090 21/18 A2977 RMK AO2
KPQN 240155Z AUTO 19005KT 10SM CLR 21/18 A2976 RMK AO2
KPQN 240135Z AUTO 19005KT 10SM CLR 21/18 A2976 RMK AO2
KPQN 240115Z AUTO 19007KT 10SM SCT080 22/18 A2975 RMK AO2
KPQN 240055Z AUTO 18007KT 10SM CLR 22/18 A2974 RMK AO2 LTG DSNT W
KPQN 240035Z AUTO 20008KT 10SM SCT080 23/17 A2974 RMK AO2
KPQN 240015Z AUTO 19009KT 10SM CLR 23/18 A2974 RMK AO2
KPQN 232355Z AUTO 19010G15KT 10SM CLR 23/18 A2973 RMK AO2
KPQN 232335Z AUTO 18007KT 10SM CLR 23/18 A2973 RMK AO2
KPQN 232321Z AUTO 18011G17KT 10SM SCT036 23/17 A2973 RMK AO2
KPQN 232255Z AUTO 17010G15KT 10SM SCT037 SCT070 24/17 A2974 RMK AO2
KPQN 232235Z AUTO 18010G14KT 10SM SCT035 24/18 A2975 RMK AO2
KPQN 232215Z AUTO 18010KT 10SM SCT035 23/17 A2976 RMK AO2
KPQN 232155Z AUTO 18010G16KT 10SM SCT035 SCT085 24/17 A2975 RMK AO2
KPQN 232135Z AUTO 20013G17KT 10SM SCT035 SCT042 SCT095 24/17 A2974 RMK AO2
KPQN 232115Z AUTO 18010G17KT 10SM SCT035 23/17 A2975 RMK AO2
KPQN 232055Z AUTO 18011G18KT 10SM SCT080 23/17 A2975 RMK AO2
KPQN 232035Z AUTO 17010KT 10SM SCT032 23/17 A2976 RMK AO2
KPQN 232015Z AUTO 19010G15KT 10SM TS SCT030 24/17 A2976 RMK AO2
KPQN 231955Z AUTO 16009G16KT 10SM SCT030 23/17 A2976 RMK AO2
KPQN 231935Z AUTO 18012KT 10SM SCT034 24/17 A2976 RMK AO2
KPQN 231915Z AUTO 19011KT 10SM SCT034 23/17 A2977 RMK AO2
KPQN 231855Z AUTO 18012KT 10SM SCT033 23/17 A2978 RMK AO2
KPQN 231835Z AUTO 19008KT 10SM CLR 23/16 A2978 RMK AO2
KPQN 231815Z AUTO 20011G16KT 10SM CLR 23/17 A2979 RMK AO2
KPQN 231755Z AUTO 20009G15KT 10SM TS CLR 23/17 A2979 RMK AO2
KPQN 231735Z AUTO 19009G14KT 10SM CLR 23/17 A2979 RMK AO2
KPQN 231715Z AUTO 20011KT 10SM TS SCT031 22/16 A2979 RMK AO2
KPQN 231655Z AUTO 19011KT 10SM SCT031 22/17 A2979 RMK AO2
KPQN 231635Z AUTO 18011KT 10SM SCT029 22/17 A2979 RMK AO2
KPQN 231615Z AUTO 18009KT 10SM SCT031 22/17 A2979 RMK AO2
KPQN 231555Z AUTO 18011KT 10SM CLR 22/17 A2979 RMK AO2
KPQN 231535Z AUTO 19010KT 10SM CLR 22/17 A2979 RMK AO2
KPQN 231515Z AUTO 18009KT 10SM CLR 21/17 A2979 RMK AO2
KPQN 231456Z AUTO 18006KT 10SM TS SCT090 21/17 A2979 RMK AO2
KPQN 231435Z AUTO 19006KT 10SM TS SCT090 21/17 A2979 RMK AO2
KPQN 231415Z AUTO 15004KT 10SM CLR 19/17 A2979 RMK AO2
KPQN 231356Z AUTO 16004KT 10SM CLR 19/17 A2979 RMK AO2
KPQN 231335Z AUTO 18004KT 10SM SCT100 18/16 A2980 RMK AO2
KPQN 231315Z AUTO 18003KT 10SM CLR 18/16 A2980 RMK AO2
KPQN 231255Z AUTO 18004KT 10SM CLR 18/16 A2980 RMK AO2
KPQN 231235Z AUTO 00000KT 10SM CLR 17/16 A2979 RMK AO2
KPQN 231215Z AUTO 00000KT 10SM CLR 17/15 A2979 RMK AO2
KPQN 231155Z AUTO 00000KT 10SM CLR 17/15 A2979 RMK AO2
KPQN 231135Z AUTO 00000KT 10SM CLR 17/14 A2980 RMK AO2
KPQN 231115Z AUTO 00000KT 10SM CLR 16/14 A2980 RMK AO2
KPQN 231055Z AUTO 00000KT 10SM CLR 16/14 A2980 RMK AO2
KPQN 231035Z AUTO 00000KT 10SM CLR 16/14 A2979 RMK AO2